sensor_id;sensor_type;location;lat;lon;timestamp;P1;durP1;ratioP1;P2;durP2;ratioP2
7983;SDS011;4037;47.980;10.172;2022-10-19T00:01:41;7.70;;;6.30;;
7983;SDS011;4037;47.980;10.172;2022-10-19T00:04:07;7.53;;;6.83;;
7983;SDS011;4037;47.980;10.172;2022-10-19T00:06:34;6.80;;;6.13;;
7983;SDS011;4037;47.980;10.172;2022-10-19T00:09:04;7.87;;;6.30;;
7983;SDS011;4037;47.980;10.172;2022-10-19T00:11:31;7.13;;;6.23;;
7983;SDS011;4037;47.980;10.172;2022-10-19T00:13:58;6.87;;;6.27;;
7983;SDS011;4037;47.980;10.172;2022-10-19T00:16:25;7.43;;;6.10;;
7983;SDS011;4037;47.980;10.172;2022-10-19T00:18:52;7.07;;;6.23;;
7983;SDS011;4037;47.980;10.172;2022-10-19T00:21:20;6.93;;;6.07;;
7983;SDS011;4037;47.980;10.172;2022-10-19T00:23:47;7.13;;;6.27;;
7983;SDS011;4037;47.980;10.172;2022-10-19T00:26:13;8.30;;;6.53;;
7983;SDS011;4037;47.980;10.172;2022-10-19T00:28:40;7.53;;;6.37;;
7983;SDS011;4037;47.980;10.172;2022-10-19T00:31:10;6.90;;;6.20;;
7983;SDS011;4037;47.980;10.172;2022-10-19T00:33:36;7.00;;;6.30;;
7983;SDS011;4037;47.980;10.172;2022-10-19T00:36:03;9.17;;;6.80;;
7983;SDS011;4037;47.980;10.172;2022-10-19T00:38:29;9.60;;;6.57;;
7983;SDS011;4037;47.980;10.172;2022-10-19T00:40:55;7.10;;;6.40;;
7983;SDS011;4037;47.980;10.172;2022-10-19T00:43:22;8.17;;;7.07;;
7983;SDS011;4037;47.980;10.172;2022-10-19T00:45:49;8.07;;;7.27;;
7983;SDS011;4037;47.980;10.172;2022-10-19T00:48:16;7.57;;;6.37;;
7983;SDS011;4037;47.980;10.172;2022-10-19T00:50:43;9.47;;;7.23;;
7983;SDS011;4037;47.980;10.172;2022-10-19T00:53:09;8.67;;;6.57;;
7983;SDS011;4037;47.980;10.172;2022-10-19T00:55:36;7.53;;;6.73;;
7983;SDS011;4037;47.980;10.172;2022-10-19T00:58:02;9.00;;;6.87;;
7983;SDS011;4037;47.980;10.172;2022-10-19T01:00:28;7.00;;;6.27;;
7983;SDS011;4037;47.980;10.172;2022-10-19T01:02:55;8.40;;;6.77;;
7983;SDS011;4037;47.980;10.172;2022-10-19T01:05:22;8.37;;;6.30;;
7983;SDS011;4037;47.980;10.172;2022-10-19T01:07:49;6.97;;;6.27;;
7983;SDS011;4037;47.980;10.172;2022-10-19T01:10:15;7.03;;;5.43;;
7983;SDS011;4037;47.980;10.172;2022-10-19T01:12:59;7.93;;;6.17;;
7983;SDS011;4037;47.980;10.172;2022-10-19T01:15:33;7.53;;;5.50;;
7983;SDS011;4037;47.980;10.172;2022-10-19T01:18:18;8.13;;;6.10;;
7983;SDS011;4037;47.980;10.172;2022-10-19T01:26:13;6.50;;;5.90;;
7983;SDS011;4037;47.980;10.172;2022-10-19T01:31:26;6.70;;;5.10;;
7983;SDS011;4037;47.980;10.172;2022-10-19T01:34:02;5.50;;;5.00;;
7983;SDS011;4037;47.980;10.172;2022-10-19T01:39:07;4.83;;;4.43;;
7983;SDS011;4037;47.980;10.172;2022-10-19T01:41:40;6.47;;;5.47;;
7983;SDS011;4037;47.980;10.172;2022-10-19T01:44:10;6.10;;;5.10;;
7983;SDS011;4037;47.980;10.172;2022-10-19T01:46:38;6.20;;;5.60;;
7983;SDS011;4037;47.980;10.172;2022-10-19T01:49:15;6.23;;;5.63;;
7983;SDS011;4037;47.980;10.172;2022-10-19T01:51:44;6.07;;;5.00;;
7983;SDS011;4037;47.980;10.172;2022-10-19T01:54:12;9.67;;;5.73;;
7983;SDS011;4037;47.980;10.172;2022-10-19T01:56:40;8.37;;;6.03;;
7983;SDS011;4037;47.980;10.172;2022-10-19T01:59:07;9.43;;;6.40;;
7983;SDS011;4037;47.980;10.172;2022-10-19T02:01:35;12.47;;;6.47;;
7983;SDS011;4037;47.980;10.172;2022-10-19T02:04:03;26.17;;;7.47;;
7983;SDS011;4037;47.980;10.172;2022-10-19T02:06:29;7.93;;;6.70;;
7983;SDS011;4037;47.980;10.172;2022-10-19T02:08:55;8.27;;;5.80;;
7983;SDS011;4037;47.980;10.172;2022-10-19T02:11:22;11.77;;;6.33;;
7983;SDS011;4037;47.980;10.172;2022-10-19T02:13:50;17.43;;;5.90;;
7983;SDS011;4037;47.980;10.172;2022-10-19T02:16:28;9.13;;;4.87;;
7983;SDS011;4037;47.980;10.172;2022-10-19T02:18:56;13.20;;;5.90;;
7983;SDS011;4037;47.980;10.172;2022-10-19T02:21:23;14.97;;;6.00;;
7983;SDS011;4037;47.980;10.172;2022-10-19T02:23:50;18.80;;;6.63;;
7983;SDS011;4037;47.980;10.172;2022-10-19T02:26:16;12.63;;;5.73;;
7983;SDS011;4037;47.980;10.172;2022-10-19T02:28:43;12.07;;;6.03;;
7983;SDS011;4037;47.980;10.172;2022-10-19T02:31:09;6.20;;;5.60;;
7983;SDS011;4037;47.980;10.172;2022-10-19T02:33:35;6.87;;;5.00;;
7983;SDS011;4037;47.980;10.172;2022-10-19T02:36:01;19.37;;;5.80;;
7983;SDS011;4037;47.980;10.172;2022-10-19T02:38:27;14.97;;;5.73;;
7983;SDS011;4037;47.980;10.172;2022-10-19T02:40:57;13.83;;;5.23;;
7983;SDS011;4037;47.980;10.172;2022-10-19T02:43:25;18.73;;;6.37;;
7983;SDS011;4037;47.980;10.172;2022-10-19T02:46:12;12.53;;;5.93;;
7983;SDS011;4037;47.980;10.172;2022-10-19T02:48:39;16.73;;;5.83;;
7983;SDS011;4037;47.980;10.172;2022-10-19T02:51:06;20.47;;;5.80;;
7983;SDS011;4037;47.980;10.172;2022-10-19T02:53:32;6.23;;;5.63;;
7983;SDS011;4037;47.980;10.172;2022-10-19T02:55:58;20.00;;;5.53;;
7983;SDS011;4037;47.980;10.172;2022-10-19T02:58:24;33.73;;;7.10;;
7983;SDS011;4037;47.980;10.172;2022-10-19T03:00:50;15.03;;;5.73;;
7983;SDS011;4037;47.980;10.172;2022-10-19T03:03:16;12.40;;;6.00;;
7983;SDS011;4037;47.980;10.172;2022-10-19T03:05:41;16.10;;;5.80;;
7983;SDS011;4037;47.980;10.172;2022-10-19T03:08:08;9.17;;;5.53;;
7983;SDS011;4037;47.980;10.172;2022-10-19T03:10:34;12.90;;;5.40;;
7983;SDS011;4037;47.980;10.172;2022-10-19T03:13:00;6.23;;;5.63;;
7983;SDS011;4037;47.980;10.172;2022-10-19T03:15:26;16.50;;;6.20;;
7983;SDS011;4037;47.980;10.172;2022-10-19T03:17:54;30.20;;;7.30;;
7983;SDS011;4037;47.980;10.172;2022-10-19T03:20:20;28.57;;;7.33;;
7983;SDS011;4037;47.980;10.172;2022-10-19T03:22:46;15.93;;;7.20;;
7983;SDS011;4037;47.980;10.172;2022-10-19T03:25:12;11.70;;;6.47;;
7983;SDS011;4037;47.980;10.172;2022-10-19T03:27:38;14.83;;;6.80;;
7983;SDS011;4037;47.980;10.172;2022-10-19T03:30:04;10.63;;;6.27;;
7983;SDS011;4037;47.980;10.172;2022-10-19T03:32:30;20.20;;;7.07;;
7983;SDS011;4037;47.980;10.172;2022-10-19T03:34:56;26.33;;;8.70;;
7983;SDS011;4037;47.980;10.172;2022-10-19T03:37:22;23.73;;;8.13;;
7983;SDS011;4037;47.980;10.172;2022-10-19T03:39:48;30.80;;;8.93;;
7983;SDS011;4037;47.980;10.172;2022-10-19T03:42:14;25.27;;;8.93;;
7983;SDS011;4037;47.980;10.172;2022-10-19T03:44:40;35.77;;;10.77;;
7983;SDS011;4037;47.980;10.172;2022-10-19T03:47:06;43.37;;;12.37;;
7983;SDS011;4037;47.980;10.172;2022-10-19T03:49:32;27.87;;;11.63;;
7983;SDS011;4037;47.980;10.172;2022-10-19T03:51:58;20.53;;;11.53;;
7983;SDS011;4037;47.980;10.172;2022-10-19T03:54:24;26.10;;;12.30;;
7983;SDS011;4037;47.980;10.172;2022-10-19T03:56:50;22.73;;;12.00;;
7983;SDS011;4037;47.980;10.172;2022-10-19T03:59:16;31.53;;;13.13;;
7983;SDS011;4037;47.980;10.172;2022-10-19T04:01:43;23.57;;;13.67;;
7983;SDS011;4037;47.980;10.172;2022-10-19T04:04:14;28.43;;;16.00;;
7983;SDS011;4037;47.980;10.172;2022-10-19T04:06:41;32.63;;;17.83;;
7983;SDS011;4037;47.980;10.172;2022-10-19T04:09:08;26.00;;;16.53;;
7983;SDS011;4037;47.980;10.172;2022-10-19T04:11:34;55.50;;;20.80;;
7983;SDS011;4037;47.980;10.172;2022-10-19T04:14:01;42.23;;;18.87;;
7983;SDS011;4037;47.980;10.172;2022-10-19T04:16:27;57.40;;;19.87;;
7983;SDS011;4037;47.980;10.172;2022-10-19T04:18:54;31.77;;;18.00;;
7983;SDS011;4037;47.980;10.172;2022-10-19T04:21:21;28.77;;;17.63;;
7983;SDS011;4037;47.980;10.172;2022-10-19T04:23:48;28.20;;;17.53;;
7983;SDS011;4037;47.980;10.172;2022-10-19T04:26:14;36.50;;;20.13;;
7983;SDS011;4037;47.980;10.172;2022-10-19T04:28:40;28.10;;;19.30;;
7983;SDS011;4037;47.980;10.172;2022-10-19T04:31:06;28.33;;;20.03;;
7983;SDS011;4037;47.980;10.172;2022-10-19T04:33:32;29.23;;;20.53;;
7983;SDS011;4037;47.980;10.172;2022-10-19T04:36:06;30.00;;;20.37;;
7983;SDS011;4037;47.980;10.172;2022-10-19T04:38:32;28.37;;;20.60;;
7983;SDS011;4037;47.980;10.172;2022-10-19T04:41:05;25.80;;;19.87;;
7983;SDS011;4037;47.980;10.172;2022-10-19T04:43:31;28.03;;;19.63;;
7983;SDS011;4037;47.980;10.172;2022-10-19T04:46:08;27.93;;;19.87;;
7983;SDS011;4037;47.980;10.172;2022-10-19T04:48:34;29.43;;;19.63;;
7983;SDS011;4037;47.980;10.172;2022-10-19T04:51:00;31.73;;;20.43;;
7983;SDS011;4037;47.980;10.172;2022-10-19T04:53:27;25.50;;;19.17;;
7983;SDS011;4037;47.980;10.172;2022-10-19T04:55:53;28.63;;;18.40;;
7983;SDS011;4037;47.980;10.172;2022-10-19T04:58:19;29.47;;;18.50;;
7983;SDS011;4037;47.980;10.172;2022-10-19T05:00:45;26.90;;;19.20;;
7983;SDS011;4037;47.980;10.172;2022-10-19T05:03:11;26.40;;;18.80;;
7983;SDS011;4037;47.980;10.172;2022-10-19T05:05:37;25.50;;;19.03;;
7983;SDS011;4037;47.980;10.172;2022-10-19T05:08:03;28.63;;;17.97;;
7983;SDS011;4037;47.980;10.172;2022-10-19T05:10:29;25.63;;;17.43;;
7983;SDS011;4037;47.980;10.172;2022-10-19T05:12:55;26.37;;;18.57;;
7983;SDS011;4037;47.980;10.172;2022-10-19T05:15:21;27.47;;;18.93;;
7983;SDS011;4037;47.980;10.172;2022-10-19T05:17:47;25.83;;;17.87;;
7983;SDS011;4037;47.980;10.172;2022-10-19T05:20:13;28.77;;;19.03;;
7983;SDS011;4037;47.980;10.172;2022-10-19T05:22:39;32.07;;;18.90;;
7983;SDS011;4037;47.980;10.172;2022-10-19T05:25:05;29.67;;;21.13;;
7983;SDS011;4037;47.980;10.172;2022-10-19T05:27:32;28.23;;;19.37;;
7983;SDS011;4037;47.980;10.172;2022-10-19T05:29:58;33.50;;;21.10;;
7983;SDS011;4037;47.980;10.172;2022-10-19T05:32:24;28.27;;;19.80;;
7983;SDS011;4037;47.980;10.172;2022-10-19T05:34:51;31.27;;;20.27;;
7983;SDS011;4037;47.980;10.172;2022-10-19T05:37:17;32.67;;;21.37;;
7983;SDS011;4037;47.980;10.172;2022-10-19T05:39:43;33.13;;;21.80;;
7983;SDS011;4037;47.980;10.172;2022-10-19T05:42:09;35.17;;;22.00;;
7983;SDS011;4037;47.980;10.172;2022-10-19T05:44:35;36.57;;;22.57;;
7983;SDS011;4037;47.980;10.172;2022-10-19T05:47:01;35.60;;;22.17;;
7983;SDS011;4037;47.980;10.172;2022-10-19T05:49:27;46.20;;;23.93;;
7983;SDS011;4037;47.980;10.172;2022-10-19T05:51:54;38.37;;;23.03;;
7983;SDS011;4037;47.980;10.172;2022-10-19T05:54:20;37.23;;;22.83;;
7983;SDS011;4037;47.980;10.172;2022-10-19T05:56:46;38.37;;;23.07;;
7983;SDS011;4037;47.980;10.172;2022-10-19T05:59:13;37.90;;;22.87;;
7983;SDS011;4037;47.980;10.172;2022-10-19T06:01:40;38.83;;;23.00;;
7983;SDS011;4037;47.980;10.172;2022-10-19T06:04:06;39.33;;;22.50;;
7983;SDS011;4037;47.980;10.172;2022-10-19T06:06:32;31.80;;;20.00;;
7983;SDS011;4037;47.980;10.172;2022-10-19T06:08:58;32.97;;;21.07;;
7983;SDS011;4037;47.980;10.172;2022-10-19T06:11:26;40.97;;;22.67;;
7983;SDS011;4037;47.980;10.172;2022-10-19T06:13:53;35.53;;;20.07;;
7983;SDS011;4037;47.980;10.172;2022-10-19T06:16:20;35.73;;;21.10;;
7983;SDS011;4037;47.980;10.172;2022-10-19T06:18:46;30.40;;;18.10;;
7983;SDS011;4037;47.980;10.172;2022-10-19T06:21:14;34.60;;;19.13;;
7983;SDS011;4037;47.980;10.172;2022-10-19T06:23:40;34.57;;;19.73;;
7983;SDS011;4037;47.980;10.172;2022-10-19T06:26:07;35.63;;;19.63;;
7983;SDS011;4037;47.980;10.172;2022-10-19T06:28:34;32.50;;;20.53;;
7983;SDS011;4037;47.980;10.172;2022-10-19T06:31:00;34.40;;;19.60;;
7983;SDS011;4037;47.980;10.172;2022-10-19T06:33:26;25.83;;;17.90;;
7983;SDS011;4037;47.980;10.172;2022-10-19T06:35:53;28.27;;;17.23;;
7983;SDS011;4037;47.980;10.172;2022-10-19T06:38:20;24.90;;;16.43;;
7983;SDS011;4037;47.980;10.172;2022-10-19T06:40:46;28.37;;;17.37;;
7983;SDS011;4037;47.980;10.172;2022-10-19T06:43:13;24.53;;;15.90;;
7983;SDS011;4037;47.980;10.172;2022-10-19T06:45:39;24.17;;;15.77;;
7983;SDS011;4037;47.980;10.172;2022-10-19T06:48:05;23.40;;;14.97;;
7983;SDS011;4037;47.980;10.172;2022-10-19T06:50:31;25.83;;;15.43;;
7983;SDS011;4037;47.980;10.172;2022-10-19T06:52:58;21.77;;;13.93;;
7983;SDS011;4037;47.980;10.172;2022-10-19T06:55:24;20.40;;;13.90;;
7983;SDS011;4037;47.980;10.172;2022-10-19T06:57:50;20.50;;;13.27;;
7983;SDS011;4037;47.980;10.172;2022-10-19T07:00:16;18.03;;;13.57;;
7983;SDS011;4037;47.980;10.172;2022-10-19T07:02:42;16.73;;;12.10;;
7983;SDS011;4037;47.980;10.172;2022-10-19T07:05:08;16.67;;;12.10;;
7983;SDS011;4037;47.980;10.172;2022-10-19T07:07:35;19.17;;;12.17;;
7983;SDS011;4037;47.980;10.172;2022-10-19T07:10:01;22.13;;;13.13;;
7983;SDS011;4037;47.980;10.172;2022-10-19T07:12:27;21.60;;;13.17;;
7983;SDS011;4037;47.980;10.172;2022-10-19T07:14:54;19.83;;;13.00;;
7983;SDS011;4037;47.980;10.172;2022-10-19T07:17:20;16.50;;;11.00;;
7983;SDS011;4037;47.980;10.172;2022-10-19T07:19:46;16.43;;;11.97;;
7983;SDS011;4037;47.980;10.172;2022-10-19T07:22:12;16.03;;;12.57;;
7983;SDS011;4037;47.980;10.172;2022-10-19T07:24:38;16.57;;;10.67;;
7983;SDS011;4037;47.980;10.172;2022-10-19T07:27:04;17.90;;;12.10;;
7983;SDS011;4037;47.980;10.172;2022-10-19T07:29:30;18.77;;;13.20;;
7983;SDS011;4037;47.980;10.172;2022-10-19T07:31:56;17.17;;;12.73;;
7983;SDS011;4037;47.980;10.172;2022-10-19T07:34:22;19.83;;;14.37;;
7983;SDS011;4037;47.980;10.172;2022-10-19T07:36:48;19.13;;;13.07;;
7983;SDS011;4037;47.980;10.172;2022-10-19T07:39:14;16.17;;;12.20;;
7983;SDS011;4037;47.980;10.172;2022-10-19T07:41:41;17.80;;;12.47;;
7983;SDS011;4037;47.980;10.172;2022-10-19T07:44:07;14.97;;;11.87;;
7983;SDS011;4037;47.980;10.172;2022-10-19T07:46:33;14.50;;;10.57;;
7983;SDS011;4037;47.980;10.172;2022-10-19T07:49:04;17.97;;;12.07;;
7983;SDS011;4037;47.980;10.172;2022-10-19T07:51:30;18.07;;;12.03;;
7983;SDS011;4037;47.980;10.172;2022-10-19T07:53:56;18.87;;;12.80;;
7983;SDS011;4037;47.980;10.172;2022-10-19T07:56:23;17.10;;;12.50;;
7983;SDS011;4037;47.980;10.172;2022-10-19T07:58:50;17.40;;;11.40;;
7983;SDS011;4037;47.980;10.172;2022-10-19T08:01:18;18.80;;;12.90;;
7983;SDS011;4037;47.980;10.172;2022-10-19T08:03:44;17.23;;;12.00;;
7983;SDS011;4037;47.980;10.172;2022-10-19T08:06:12;15.40;;;10.73;;
7983;SDS011;4037;47.980;10.172;2022-10-19T08:08:38;15.93;;;10.90;;
7983;SDS011;4037;47.980;10.172;2022-10-19T08:11:47;16.37;;;12.10;;
7983;SDS011;4037;47.980;10.172;2022-10-19T08:13:54;15.87;;;12.40;;
7983;SDS011;4037;47.980;10.172;2022-10-19T08:16:24;15.50;;;11.60;;
7983;SDS011;4037;47.980;10.172;2022-10-19T08:18:51;18.47;;;11.97;;
7983;SDS011;4037;47.980;10.172;2022-10-19T08:21:17;17.73;;;12.30;;
7983;SDS011;4037;47.980;10.172;2022-10-19T08:23:43;15.47;;;11.93;;
7983;SDS011;4037;47.980;10.172;2022-10-19T08:26:09;19.20;;;13.33;;
7983;SDS011;4037;47.980;10.172;2022-10-19T08:28:35;18.60;;;12.73;;
7983;SDS011;4037;47.980;10.172;2022-10-19T08:31:08;17.43;;;12.07;;
7983;SDS011;4037;47.980;10.172;2022-10-19T08:33:34;15.43;;;11.83;;
7983;SDS011;4037;47.980;10.172;2022-10-19T08:36:03;21.00;;;13.23;;
7983;SDS011;4037;47.980;10.172;2022-10-19T08:38:29;16.63;;;12.90;;
7983;SDS011;4037;47.980;10.172;2022-10-19T08:40:55;18.63;;;13.77;;
7983;SDS011;4037;47.980;10.172;2022-10-19T08:43:26;19.67;;;13.67;;
7983;SDS011;4037;47.980;10.172;2022-10-19T08:50:50;19.33;;;13.63;;
7983;SDS011;4037;47.980;10.172;2022-10-19T09:00:59;22.80;;;14.80;;
7983;SDS011;4037;47.980;10.172;2022-10-19T09:03:52;25.20;;;14.37;;
7983;SDS011;4037;47.980;10.172;2022-10-19T09:06:21;20.63;;;14.43;;
7983;SDS011;4037;47.980;10.172;2022-10-19T09:08:52;17.47;;;14.10;;
7983;SDS011;4037;47.980;10.172;2022-10-19T09:11:21;20.03;;;13.63;;
7983;SDS011;4037;47.980;10.172;2022-10-19T09:13:49;20.50;;;12.97;;
7983;SDS011;4037;47.980;10.172;2022-10-19T09:16:19;21.77;;;13.43;;
7983;SDS011;4037;47.980;10.172;2022-10-19T09:18:46;23.83;;;14.50;;
7983;SDS011;4037;47.980;10.172;2022-10-19T09:21:23;18.27;;;13.50;;
7983;SDS011;4037;47.980;10.172;2022-10-19T09:24:04;19.43;;;13.30;;
7983;SDS011;4037;47.980;10.172;2022-10-19T09:26:41;19.30;;;13.87;;
7983;SDS011;4037;47.980;10.172;2022-10-19T09:31:58;19.17;;;13.33;;
7983;SDS011;4037;47.980;10.172;2022-10-19T09:34:25;18.27;;;13.33;;
7983;SDS011;4037;47.980;10.172;2022-10-19T09:36:55;18.30;;;12.67;;
7983;SDS011;4037;47.980;10.172;2022-10-19T09:39:22;18.27;;;12.90;;
7983;SDS011;4037;47.980;10.172;2022-10-19T09:41:51;19.80;;;13.13;;
7983;SDS011;4037;47.980;10.172;2022-10-19T09:44:18;17.67;;;12.73;;
7983;SDS011;4037;47.980;10.172;2022-10-19T09:46:52;19.00;;;13.90;;
7983;SDS011;4037;47.980;10.172;2022-10-19T09:52:04;17.73;;;14.40;;
7983;SDS011;4037;47.980;10.172;2022-10-19T09:54:32;17.67;;;14.57;;
7983;SDS011;4037;47.980;10.172;2022-10-19T09:56:59;16.43;;;12.77;;
7983;SDS011;4037;47.980;10.172;2022-10-19T09:59:27;20.00;;;13.50;;
7983;SDS011;4037;47.980;10.172;2022-10-19T10:02:11;16.93;;;12.37;;
7983;SDS011;4037;47.980;10.172;2022-10-19T10:04:38;18.97;;;13.43;;
7983;SDS011;4037;47.980;10.172;2022-10-19T10:07:04;17.83;;;13.50;;
7983;SDS011;4037;47.980;10.172;2022-10-19T10:09:30;15.43;;;12.80;;
7983;SDS011;4037;47.980;10.172;2022-10-19T10:11:57;18.30;;;13.00;;
7983;SDS011;4037;47.980;10.172;2022-10-19T10:14:34;18.50;;;14.10;;
7983;SDS011;4037;47.980;10.172;2022-10-19T10:17:05;18.33;;;12.80;;
7983;SDS011;4037;47.980;10.172;2022-10-19T10:19:32;16.90;;;13.30;;
7983;SDS011;4037;47.980;10.172;2022-10-19T10:22:00;16.67;;;12.50;;
7983;SDS011;4037;47.980;10.172;2022-10-19T10:24:31;15.50;;;12.80;;
7983;SDS011;4037;47.980;10.172;2022-10-19T10:27:01;13.63;;;11.93;;
7983;SDS011;4037;47.980;10.172;2022-10-19T10:29:32;17.30;;;12.17;;
7983;SDS011;4037;47.980;10.172;2022-10-19T10:36:59;15.97;;;12.63;;
7983;SDS011;4037;47.980;10.172;2022-10-19T10:39:26;15.73;;;13.03;;
7983;SDS011;4037;47.980;10.172;2022-10-19T10:41:53;20.20;;;12.07;;
7983;SDS011;4037;47.980;10.172;2022-10-19T10:44:20;15.67;;;12.40;;
7983;SDS011;4037;47.980;10.172;2022-10-19T10:46:54;15.07;;;12.50;;
7983;SDS011;4037;47.980;10.172;2022-10-19T10:49:22;15.40;;;12.07;;
7983;SDS011;4037;47.980;10.172;2022-10-19T10:52:10;18.50;;;12.47;;
7983;SDS011;4037;47.980;10.172;2022-10-19T10:54:35;15.07;;;12.07;;
7983;SDS011;4037;47.980;10.172;2022-10-19T10:59:36;18.17;;;11.10;;
7983;SDS011;4037;47.980;10.172;2022-10-19T11:02:13;13.67;;;11.33;;
7983;SDS011;4037;47.980;10.172;2022-10-19T11:04:41;13.47;;;11.20;;
7983;SDS011;4037;47.980;10.172;2022-10-19T11:07:16;13.83;;;11.93;;
7983;SDS011;4037;47.980;10.172;2022-10-19T11:09:48;13.87;;;10.70;;
7983;SDS011;4037;47.980;10.172;2022-10-19T11:12:15;16.43;;;12.27;;
7983;SDS011;4037;47.980;10.172;2022-10-19T11:14:47;13.50;;;11.60;;
7983;SDS011;4037;47.980;10.172;2022-10-19T11:17:24;12.97;;;10.77;;
7983;SDS011;4037;47.980;10.172;2022-10-19T11:19:51;12.50;;;10.13;;
7983;SDS011;4037;47.980;10.172;2022-10-19T11:22:19;12.83;;;11.00;;
7983;SDS011;4037;47.980;10.172;2022-10-19T11:25:01;14.37;;;12.00;;
7983;SDS011;4037;47.980;10.172;2022-10-19T11:30:17;14.63;;;9.97;;
7983;SDS011;4037;47.980;10.172;2022-10-19T11:36:11;11.23;;;9.80;;
7983;SDS011;4037;47.980;10.172;2022-10-19T11:48:18;12.40;;;10.53;;
7983;SDS011;4037;47.980;10.172;2022-10-19T11:50:53;12.70;;;10.97;;
7983;SDS011;4037;47.980;10.172;2022-10-19T11:53:42;11.80;;;10.57;;
7983;SDS011;4037;47.980;10.172;2022-10-19T11:56:13;14.80;;;9.43;;
7983;SDS011;4037;47.980;10.172;2022-10-19T12:06:43;12.23;;;9.07;;
7983;SDS011;4037;47.980;10.172;2022-10-19T12:14:21;14.83;;;10.53;;
7983;SDS011;4037;47.980;10.172;2022-10-19T12:16:49;11.20;;;9.67;;
7983;SDS011;4037;47.980;10.172;2022-10-19T12:19:21;10.50;;;8.33;;
7983;SDS011;4037;47.980;10.172;2022-10-19T12:21:49;11.57;;;8.20;;
7983;SDS011;4037;47.980;10.172;2022-10-19T12:24:17;8.10;;;7.17;;
7983;SDS011;4037;47.980;10.172;2022-10-19T12:26:44;9.07;;;7.53;;
7983;SDS011;4037;47.980;10.172;2022-10-19T12:29:12;8.30;;;7.27;;
7983;SDS011;4037;47.980;10.172;2022-10-19T12:31:39;10.00;;;6.97;;
7983;SDS011;4037;47.980;10.172;2022-10-19T12:36:41;12.33;;;9.40;;
7983;SDS011;4037;47.980;10.172;2022-10-19T12:41:55;14.23;;;10.87;;
7983;SDS011;4037;47.980;10.172;2022-10-19T12:47:00;10.47;;;9.07;;
7983;SDS011;4037;47.980;10.172;2022-10-19T12:51:58;9.83;;;7.33;;
7983;SDS011;4037;47.980;10.172;2022-10-19T12:54:25;9.00;;;6.77;;
7983;SDS011;4037;47.980;10.172;2022-10-19T12:56:52;8.63;;;7.40;;
7983;SDS011;4037;47.980;10.172;2022-10-19T12:59:29;12.30;;;9.10;;
7983;SDS011;4037;47.980;10.172;2022-10-19T13:01:56;12.00;;;9.60;;
7983;SDS011;4037;47.980;10.172;2022-10-19T13:04:24;11.20;;;9.87;;
7983;SDS011;4037;47.980;10.172;2022-10-19T13:12:25;12.57;;;7.13;;
7983;SDS011;4037;47.980;10.172;2022-10-19T13:14:52;11.13;;;7.17;;
7983;SDS011;4037;47.980;10.172;2022-10-19T13:27:39;14.00;;;9.60;;
7983;SDS011;4037;47.980;10.172;2022-10-19T13:30:07;10.83;;;9.17;;
7983;SDS011;4037;47.980;10.172;2022-10-19T13:32:51;10.80;;;8.97;;
7983;SDS011;4037;47.980;10.172;2022-10-19T13:35:31;11.23;;;8.53;;
7983;SDS011;4037;47.980;10.172;2022-10-19T13:43:18;11.63;;;9.50;;
7983;SDS011;4037;47.980;10.172;2022-10-19T13:48:23;10.07;;;8.97;;
7983;SDS011;4037;47.980;10.172;2022-10-19T13:50:56;11.13;;;8.80;;
7983;SDS011;4037;47.980;10.172;2022-10-19T13:56:16;11.60;;;8.50;;
7983;SDS011;4037;47.980;10.172;2022-10-19T14:06:35;9.00;;;8.00;;
7983;SDS011;4037;47.980;10.172;2022-10-19T14:11:36;9.33;;;7.33;;
7983;SDS011;4037;47.980;10.172;2022-10-19T14:16:32;10.67;;;6.33;;
7983;SDS011;4037;47.980;10.172;2022-10-19T14:18:58;8.13;;;7.17;;
7983;SDS011;4037;47.980;10.172;2022-10-19T14:21:30;10.30;;;7.73;;
7983;SDS011;4037;47.980;10.172;2022-10-19T14:23:57;9.73;;;7.47;;
7983;SDS011;4037;47.980;10.172;2022-10-19T14:26:24;8.83;;;7.73;;
7983;SDS011;4037;47.980;10.172;2022-10-19T14:28:52;12.93;;;8.13;;
7983;SDS011;4037;47.980;10.172;2022-10-19T14:31:21;10.07;;;7.40;;
7983;SDS011;4037;47.980;10.172;2022-10-19T14:33:49;11.03;;;7.97;;
7983;SDS011;4037;47.980;10.172;2022-10-19T14:36:18;9.20;;;7.43;;
7983;SDS011;4037;47.980;10.172;2022-10-19T14:38:45;9.03;;;6.57;;
7983;SDS011;4037;47.980;10.172;2022-10-19T14:41:17;11.23;;;7.77;;
7983;SDS011;4037;47.980;10.172;2022-10-19T14:43:44;10.77;;;8.70;;
7983;SDS011;4037;47.980;10.172;2022-10-19T14:46:11;8.47;;;7.50;;
7983;SDS011;4037;47.980;10.172;2022-10-19T14:48:41;9.23;;;8.20;;
7983;SDS011;4037;47.980;10.172;2022-10-19T14:53:46;13.37;;;7.77;;
7983;SDS011;4037;47.980;10.172;2022-10-19T14:56:31;8.83;;;7.40;;
7983;SDS011;4037;47.980;10.172;2022-10-19T14:59:00;11.90;;;8.43;;
7983;SDS011;4037;47.980;10.172;2022-10-19T15:01:27;13.03;;;8.93;;
7983;SDS011;4037;47.980;10.172;2022-10-19T15:03:53;10.20;;;8.83;;
7983;SDS011;4037;47.980;10.172;2022-10-19T15:06:24;11.50;;;9.13;;
7983;SDS011;4037;47.980;10.172;2022-10-19T15:08:55;10.00;;;8.63;;
7983;SDS011;4037;47.980;10.172;2022-10-19T15:11:24;10.33;;;8.60;;
7983;SDS011;4037;47.980;10.172;2022-10-19T15:14:33;11.37;;;9.10;;
7983;SDS011;4037;47.980;10.172;2022-10-19T15:19:13;12.03;;;9.43;;
7983;SDS011;4037;47.980;10.172;2022-10-19T15:21:40;11.27;;;8.47;;
7983;SDS011;4037;47.980;10.172;2022-10-19T15:24:07;12.73;;;9.50;;
7983;SDS011;4037;47.980;10.172;2022-10-19T15:26:33;12.23;;;9.23;;
7983;SDS011;4037;47.980;10.172;2022-10-19T15:29:06;12.50;;;10.03;;
7983;SDS011;4037;47.980;10.172;2022-10-19T15:31:33;13.57;;;9.80;;
7983;SDS011;4037;47.980;10.172;2022-10-19T15:33:59;12.53;;;9.73;;
7983;SDS011;4037;47.980;10.172;2022-10-19T15:36:26;12.53;;;9.77;;
7983;SDS011;4037;47.980;10.172;2022-10-19T15:41:26;13.20;;;9.63;;
7983;SDS011;4037;47.980;10.172;2022-10-19T15:44:02;10.80;;;9.00;;
7983;SDS011;4037;47.980;10.172;2022-10-19T15:46:30;12.20;;;9.17;;
7983;SDS011;4037;47.980;10.172;2022-10-19T15:51:43;10.50;;;8.63;;
7983;SDS011;4037;47.980;10.172;2022-10-19T15:54:10;10.90;;;9.13;;
7983;SDS011;4037;47.980;10.172;2022-10-19T15:56:39;11.27;;;9.30;;
7983;SDS011;4037;47.980;10.172;2022-10-19T15:59:10;16.77;;;10.53;;
7983;SDS011;4037;47.980;10.172;2022-10-19T16:01:36;13.47;;;9.63;;
7983;SDS011;4037;47.980;10.172;2022-10-19T16:04:02;12.90;;;9.83;;
7983;SDS011;4037;47.980;10.172;2022-10-19T16:06:29;14.60;;;9.23;;
7983;SDS011;4037;47.980;10.172;2022-10-19T16:08:56;10.63;;;8.43;;
7983;SDS011;4037;47.980;10.172;2022-10-19T16:11:22;14.13;;;9.33;;
7983;SDS011;4037;47.980;10.172;2022-10-19T16:13:49;12.00;;;9.43;;
7983;SDS011;4037;47.980;10.172;2022-10-19T16:16:22;10.90;;;9.50;;
7983;SDS011;4037;47.980;10.172;2022-10-19T16:18:48;10.87;;;9.33;;
7983;SDS011;4037;47.980;10.172;2022-10-19T16:21:15;10.03;;;8.73;;
7983;SDS011;4037;47.980;10.172;2022-10-19T16:23:41;14.80;;;9.00;;
7983;SDS011;4037;47.980;10.172;2022-10-19T16:26:07;11.33;;;8.97;;
7983;SDS011;4037;47.980;10.172;2022-10-19T16:28:33;10.83;;;8.50;;
7983;SDS011;4037;47.980;10.172;2022-10-19T16:30:59;9.97;;;8.60;;
7983;SDS011;4037;47.980;10.172;2022-10-19T16:33:25;9.20;;;8.23;;
7983;SDS011;4037;47.980;10.172;2022-10-19T16:35:51;14.30;;;9.13;;
7983;SDS011;4037;47.980;10.172;2022-10-19T16:38:17;13.10;;;8.90;;
7983;SDS011;4037;47.980;10.172;2022-10-19T16:40:43;9.03;;;7.93;;
7983;SDS011;4037;47.980;10.172;2022-10-19T16:43:09;9.03;;;7.63;;
7983;SDS011;4037;47.980;10.172;2022-10-19T16:45:35;11.60;;;8.90;;
7983;SDS011;4037;47.980;10.172;2022-10-19T16:48:01;10.30;;;8.53;;
7983;SDS011;4037;47.980;10.172;2022-10-19T16:50:27;11.33;;;8.63;;
7983;SDS011;4037;47.980;10.172;2022-10-19T16:53:06;10.23;;;8.20;;
7983;SDS011;4037;47.980;10.172;2022-10-19T16:55:36;9.97;;;8.20;;